Rm Thomas — FNMP — position and weather

sailwx.info

Track history (hours):
 
Tides and Currents Weather Stations Pressure Air Temp Water Temp Dewpoint Dewpoint Depression Visibility Wind Speed Wind Dir Waves Ship Positions

Rm Thomas

Last reported at 2015-Mar-10 21:27 UTC. Time now 2015-Mar-27 20:55 UTC.
Position N 44°54' W 000°32'.
Warning: this ship's position is 16 days out of date.

Length 25 m; draft 4 m.

Type: Tug. MMSI: 228278700.

Date/timePositionNaut miles runAvg speedWind from/ knotsBaromVisibWave heightAir tempDewpointWater temp
2015-Mar-10 21:27N 44°54' W 000°32'4 1.9
2015-Mar-10 19:20N 44°58' W 000°33'2 2.8
2015-Mar-10 18:31N 44°60' W 000°33'0 0.0
2015-Mar-10 08:30N 45°00' W 000°34'1 1.1
2015-Mar-10 07:33N 45°01' W 000°35'2 2.4
2015-Mar-10 06:29N 44°59' W 000°32'6 2.9
2015-Mar-10 04:30N 44°53' W 000°32'0 0.0
2015-Mar-10 02:32N 44°53' W 000°32'0 0.0
2015-Mar-10 00:33N 44°53' W 000°32'0 0.0
2015-Mar-09 09:31N 44°53' W 000°32'0 0.0
2015-Mar-09 08:21N 44°53' W 000°32'7 7.7
2015-Mar-09 07:29N 44°60' W 000°33'2 2.6
2015-Mar-09 06:33N 44°57' W 000°33'4 4.0
2015-Mar-09 05:31N 44°53' W 000°32'0 0.0
2015-Mar-08 22:32N 44°53' W 000°32'0 0.0
2015-Mar-08 21:15N 44°53' W 000°32'0 0.0
2015-Mar-08 20:33N 44°53' W 000°32'0 0.0
2015-Mar-08 09:33N 44°53' W 000°32'3 1.5
2015-Mar-08 07:13N 44°57' W 000°33'3 4.1
2015-Mar-08 06:26N 44°60' W 000°33'1 1.7
2015-Mar-08 05:33N 45°01' W 000°35'3 3.4
2015-Mar-08 04:33N 44°58' W 000°32'5 1.1
2015-Mar-08 00:29N 44°53' W 000°32'0 0.0
2015-Mar-07 22:19N 44°53' W 000°32'3 0.2
2015-Mar-07 07:26N 44°57' W 000°33'  
Track history (hours):
 
Tides and Currents Weather Stations Pressure Air Temp Water Temp Dewpoint Dewpoint Depression Visibility Wind Speed Wind Dir Waves Ship Positions

Rm Thomas

Last reported at 2015-Mar-10 21:27 UTC. Time now 2015-Mar-27 20:55 UTC.
Position N 44°54' W 000°32'.
Warning: this ship's position is 16 days out of date.

Length 25 m; draft 4 m.

Type: Tug. MMSI: 228278700.

Date/timePositionNaut miles runAvg speedWind from/ knotsBaromVisibWave heightAir tempDewpointWater temp
2015-Mar-10 21:27N 44°54' W 000°32'4 1.9
2015-Mar-10 19:20N 44°58' W 000°33'2 2.8
2015-Mar-10 18:31N 44°60' W 000°33'0 0.0
2015-Mar-10 08:30N 45°00' W 000°34'1 1.1
2015-Mar-10 07:33N 45°01' W 000°35'2 2.4
2015-Mar-10 06:29N 44°59' W 000°32'6 2.9
2015-Mar-10 04:30N 44°53' W 000°32'0 0.0
2015-Mar-10 02:32N 44°53' W 000°32'0 0.0
2015-Mar-10 00:33N 44°53' W 000°32'0 0.0
2015-Mar-09 09:31N 44°53' W 000°32'0 0.0
2015-Mar-09 08:21N 44°53' W 000°32'7 7.7
2015-Mar-09 07:29N 44°60' W 000°33'2 2.6
2015-Mar-09 06:33N 44°57' W 000°33'4 4.0
2015-Mar-09 05:31N 44°53' W 000°32'0 0.0
2015-Mar-08 22:32N 44°53' W 000°32'0 0.0
2015-Mar-08 21:15N 44°53' W 000°32'0 0.0
2015-Mar-08 20:33N 44°53' W 000°32'0 0.0
2015-Mar-08 09:33N 44°53' W 000°32'3 1.5
2015-Mar-08 07:13N 44°57' W 000°33'3 4.1
2015-Mar-08 06:26N 44°60' W 000°33'1 1.7
2015-Mar-08 05:33N 45°01' W 000°35'3 3.4
2015-Mar-08 04:33N 44°58' W 000°32'5 1.1
2015-Mar-08 00:29N 44°53' W 000°32'0 0.0
2015-Mar-07 22:19N 44°53' W 000°32'3 0.2
2015-Mar-07 07:26N 44°57' W 000°33'  

Dump ship's entire track history